Time;durP1;ratioP1;P1;durP2;ratioP2;P2;SDS_P1;SDS_P2;PMS_P1;PMS_P2;Temp;Humidity;BMP_temperature;BMP_pressure;BME280_temperature;BME280_humidity;BME280_pressure;Samples;Min_cycle;Max_cycle;Signal;HPM_P1;HPM_P2
2023/10/17 00:01:33;;;;;;;3.90;0.60;;;;;;;7.57;65.18;100539.84;105722;1254;64104;-54
2023/10/17 00:04:12;;;;;;;3.40;1.00;;;;;;;7.59;65.07;100548.10;105625;1254;61363;-54
2023/10/17 00:06:40;;;;;;;2.60;0.80;;;;;;;7.63;64.93;100549.08;106289;1254;63904;-57
2023/10/17 00:09:07;;;;;;;4.70;0.90;;;;;;;7.65;64.97;100543.87;105530;1254;60560;-54
2023/10/17 00:12:25;;;;;;;2.60;0.60;;;;;;;7.64;64.96;100542.90;105564;1259;60383;-54
2023/10/17 00:14:27;;;;;;;2.50;0.80;;;;;;;7.60;65.19;100545.28;105360;1254;64985;-54
2023/10/17 00:16:55;;;;;;;3.70;1.10;;;;;;;7.55;65.36;100546.63;105859;1259;61377;-55
2023/10/17 00:19:26;;;;;;;5.30;2.40;;;;;;;7.51;65.46;100548.61;105179;1254;62458;-55
2023/10/17 00:21:54;;;;;;;3.30;0.80;;;;;;;7.55;65.45;100551.00;105899;1259;60458;-54
2023/10/17 00:24:24;;;;;;;2.70;0.70;;;;;;;7.58;65.48;100548.84;105889;1258;63439;-55
2023/10/17 00:26:52;;;;;;;6.10;0.90;;;;;;;7.63;65.49;100551.16;105257;1254;64937;-59
2023/10/17 00:29:20;;;;;;;4.20;1.00;;;;;;;7.63;65.64;100553.05;106039;1259;61312;-55
2023/10/17 00:31:47;;;;;;;4.10;1.00;;;;;;;7.63;65.73;100556.38;105295;1259;63825;-55
2023/10/17 00:34:16;;;;;;;4.10;1.20;;;;;;;7.63;65.79;100558.16;105287;1254;60568;-55
2023/10/17 00:36:49;;;;;;;2.00;0.70;;;;;;;7.63;65.91;100558.00;106137;1258;60466;-54
2023/10/17 00:39:31;;;;;;;3.10;1.00;;;;;;;7.64;66.03;100558.45;106017;1258;64891;-54
2023/10/17 00:44:38;;;;;;;3.40;1.00;;;;;;;7.79;65.73;100568.64;105323;1259;62525;-54
2023/10/17 00:47:11;;;;;;;8.80;2.40;;;;;;;7.86;65.64;100565.02;105387;1259;60578;-56
2023/10/17 00:49:44;;;;;;;4.40;1.10;;;;;;;7.91;65.54;100574.14;105274;1257;60546;-54
2023/10/17 00:52:18;;;;;;;3.80;1.60;;;;;;;7.91;65.38;100568.90;105450;1254;63957;-55
2023/10/17 00:54:46;;;;;;;3.00;1.10;;;;;;;7.90;65.42;100570.00;105274;1254;61508;-54
2023/10/17 00:57:15;;;;;;;5.10;1.60;;;;;;;7.90;65.49;100570.56;105503;1256;64399;-55
2023/10/17 00:59:53;;;;;;;4.20;1.10;;;;;;;7.92;65.52;100571.14;105346;1254;60655;-53
2023/10/17 01:02:23;;;;;;;3.30;1.10;;;;;;;8.00;65.29;100571.84;105275;1255;61671;-53
2023/10/17 01:04:51;;;;;;;5.80;1.20;;;;;;;8.08;65.11;100577.57;106684;1254;64914;-54
2023/10/17 01:07:29;;;;;;;6.50;2.50;;;;;;;8.13;64.91;100572.84;108433;1254;61366;-53
2023/10/17 01:10:10;;;;;;;4.50;1.60;;;;;;;8.16;64.80;100576.48;105697;1257;63678;-54
2023/10/17 01:12:52;;;;;;;6.40;3.00;;;;;;;8.17;64.75;100578.19;105497;1260;60536;-54
2023/10/17 01:15:22;;;;;;;3.50;1.20;;;;;;;8.17;64.68;100583.73;105401;1257;60463;-53
2023/10/17 01:17:54;;;;;;;3.40;0.90;;;;;;;8.16;64.52;100583.30;106006;1254;63712;-54
2023/10/17 01:20:22;;;;;;;3.20;0.90;;;;;;;8.19;64.44;100584.89;105849;1254;61388;-54
2023/10/17 01:22:55;;;;;;;5.70;3.00;;;;;;;8.25;64.29;100588.48;105309;1259;63722;-54
2023/10/17 01:25:25;;;;;;;2.80;0.70;;;;;;;8.28;64.18;100588.85;105914;1254;60793;-54
2023/10/17 01:27:54;;;;;;;4.20;1.10;;;;;;;8.28;64.28;100585.31;105340;1257;60409;-53
2023/10/17 01:30:22;;;;;;;4.70;1.50;;;;;;;8.26;64.30;100593.16;106051;1258;64756;-54
2023/10/17 01:32:51;;;;;;;4.90;0.80;;;;;;;8.22;64.40;100597.83;106001;1259;60500;-54
2023/10/17 01:35:19;;;;;;;4.60;1.20;;;;;;;8.18;64.47;100598.08;105339;1259;63671;-55
2023/10/17 01:37:47;;;;;;;11.50;1.10;;;;;;;8.12;64.47;100600.71;105306;1254;61712;-53
2023/10/17 01:40:26;;;;;;;4.80;1.00;;;;;;;8.13;64.38;100602.77;105339;1258;60452;-53
2023/10/17 01:42:59;;;;;;;5.80;2.70;;;;;;;8.17;64.28;100606.67;105924;1254;63683;-53
2023/10/17 01:45:37;;;;;;;3.50;0.70;;;;;;;8.20;64.42;100611.17;105890;1254;60552;-53
2023/10/17 01:48:05;;;;;;;6.00;2.70;;;;;;;8.19;64.46;100618.04;105315;1259;63744;-52
2023/10/17 01:50:33;;;;;;;3.90;1.00;;;;;;;8.16;64.56;100623.69;105587;1259;60506;-52
2023/10/17 01:53:03;;;;;;;3.30;1.30;;;;;;;8.12;64.55;100620.79;105707;1258;60357;-53
2023/10/17 01:55:35;;;;;;;5.10;1.40;;;;;;;8.09;64.70;100622.22;105630;1254;64920;-56
2023/10/17 01:58:07;;;;;;;5.30;2.70;;;;;;;8.10;64.74;100624.63;105656;1259;60594;-54
2023/10/17 02:00:38;;;;;;;4.20;1.60;;;;;;;8.15;64.66;100625.64;105503;1259;62524;-55
2023/10/17 02:03:05;;;;;;;3.30;1.20;;;;;;;8.19;64.60;100628.38;105244;1257;60559;-55
2023/10/17 02:05:36;;;;;;;7.20;3.50;;;;;;;8.19;64.64;100634.88;105204;1254;60848;-54
2023/10/17 02:08:05;;;;;;;3.00;0.90;;;;;;;8.14;64.67;100633.45;105572;1254;65026;-54
2023/10/17 02:10:33;;;;;;;4.00;1.40;;;;;;;8.12;64.83;100636.19;105689;1258;61363;-51
2023/10/17 02:13:04;;;;;;;3.70;1.00;;;;;;;8.11;64.91;100638.21;105643;1254;63848;-55
2023/10/17 02:15:32;;;;;;;6.30;3.00;;;;;;;8.11;64.92;100637.31;107337;1257;60533;-55
2023/10/17 02:18:06;;;;;;;4.30;1.10;;;;;;;8.20;64.72;100639.86;105711;1258;60591;-54
2023/10/17 02:20:34;;;;;;;3.80;1.40;;;;;;;8.30;64.60;100639.58;105630;1260;65063;-54
2023/10/17 02:26:00;;;;;;;2.90;0.90;;;;;;;8.42;64.36;100645.77;105100;1257;63974;-54
2023/10/17 02:28:29;;;;;;;3.40;0.70;;;;;;;8.43;64.36;100645.35;105280;1259;60543;-56
2023/10/17 02:30:58;;;;;;;6.90;3.30;;;;;;;8.43;64.31;100645.73;106552;1257;60360;-54
2023/10/17 02:33:28;;;;;;;4.00;1.20;;;;;;;8.44;64.38;100654.02;105685;1259;63719;-53
2023/10/17 02:36:12;;;;;;;5.50;1.40;;;;;;;8.44;64.33;100658.21;105714;1254;60503;-54
2023/10/17 02:38:40;;;;;;;5.10;1.20;;;;;;;8.43;64.25;100662.31;106991;1254;63713;-55
2023/10/17 02:41:18;;;;;;;3.60;1.20;;;;;;;8.42;64.23;100666.21;105421;1259;60586;-53
2023/10/17 02:43:47;;;;;;;2.60;0.60;;;;;;;8.45;64.16;100665.64;105338;1255;60558;-54
2023/10/17 02:46:14;;;;;;;5.90;2.60;;;;;;;8.51;64.07;100666.84;105407;1257;63730;-54
2023/10/17 02:48:42;;;;;;;3.90;1.00;;;;;;;8.56;63.89;100664.43;105454;1257;60532;-55
2023/10/17 02:53:57;;;;;;;7.20;3.30;;;;;;;8.54;64.08;100672.98;105433;1254;60558;-54
2023/10/17 02:56:27;;;;;;;3.20;0.90;;;;;;;8.56;64.13;100673.54;105934;1259;60450;-54
2023/10/17 02:59:04;;;;;;;6.10;3.00;;;;;;;8.59;64.16;100677.21;105298;1259;65115;-55
2023/10/17 03:01:33;;;;;;;4.90;1.00;;;;;;;8.61;64.05;100681.79;105606;1259;60424;-52
2023/10/17 03:04:10;;;;;;;4.20;1.50;;;;;;;8.66;63.80;100684.91;105724;1257;63758;-55
2023/10/17 03:06:39;;;;;;;4.10;1.50;;;;;;;8.70;63.38;100685.16;105439;1260;60470;-53
2023/10/17 03:17:07;;;;;;;7.00;3.80;;;;;;;8.69;63.47;100690.11;105539;1258;62440;-54
2023/10/17 03:19:35;;;;;;;2.80;1.00;;;;;;;8.66;63.58;100692.61;105624;1254;60535;-54
2023/10/17 03:22:16;;;;;;;4.20;1.50;;;;;;;8.63;63.66;100697.02;105733;1259;60464;-54
2023/10/17 03:24:45;;;;;;;8.80;4.10;;;;;;;8.61;63.82;100696.48;105393;1253;63652;-55
2023/10/17 03:28:00;;;;;;;3.50;0.90;;;;;;;8.62;63.77;100699.20;105295;1257;60536;-55
2023/10/17 03:30:10;;;;;;;7.30;1.20;;;;;;;8.69;63.50;100699.59;105166;1260;63712;-55
2023/10/17 03:35:26;;;;;;;6.70;3.50;;;;;;;8.80;62.99;100705.14;105735;1257;61679;-54
2023/10/17 03:37:55;;;;;;;3.50;0.90;;;;;;;8.82;62.66;100706.25;107465;1259;64935;-54
2023/10/17 03:40:40;;;;;;;4.80;1.30;;;;;;;8.81;62.55;100711.02;106747;1260;61570;-53
2023/10/17 03:43:15;;;;;;;4.00;1.40;;;;;;;8.78;62.44;100710.58;105277;1255;63688;-53
2023/10/17 03:45:58;;;;;;;6.60;3.40;;;;;;;8.73;62.49;100714.52;105326;1256;60571;-54
2023/10/17 03:48:29;;;;;;;3.70;1.00;;;;;;;8.67;62.57;100717.56;105654;1254;60455;-54
2023/10/17 03:50:59;;;;;;;5.50;2.10;;;;;;;8.61;62.61;100717.95;105164;1259;65024;-54
2023/10/17 03:53:32;;;;;;;4.40;1.20;;;;;;;8.62;62.58;100717.55;105100;1254;61440;-51
2023/10/17 03:56:04;;;;;;;4.00;1.10;;;;;;;8.67;62.27;100714.60;105804;1264;66289;-53
2023/10/17 03:58:48;;;;;;;6.70;3.10;;;;;;;8.63;62.12;100722.55;105432;1260;60600;-54
2023/10/17 04:01:18;;;;;;;5.60;1.90;;;;;;;8.63;62.10;100721.35;105115;1257;60631;-55
2023/10/17 04:03:47;;;;;;;5.60;1.60;;;;;;;8.57;62.20;100725.23;105281;1254;63902;-54
2023/10/17 04:06:20;;;;;;;7.00;3.70;;;;;;;8.51;62.27;100727.02;105234;1260;60524;-54
2023/10/17 04:08:48;;;;;;;4.10;1.10;;;;;;;8.44;62.40;100725.73;106815;1257;62901;-54
2023/10/17 04:13:55;;;;;;;3.80;1.10;;;;;;;8.31;62.81;100735.79;106060;1260;59535;-55
2023/10/17 04:16:34;;;;;;;4.40;0.80;;;;;;;8.32;62.86;100741.67;106023;1254;64915;-55
2023/10/17 04:19:04;;;;;;;4.80;0.80;;;;;;;8.34;62.81;100742.55;107375;1257;61663;-54
2023/10/17 04:22:08;;;;;;;6.10;3.10;;;;;;;8.36;62.78;100746.32;105598;1259;65912;-55
2023/10/17 04:24:48;;;;;;;3.50;1.30;;;;;;;8.41;62.71;100750.39;106214;1254;60420;-58
2023/10/17 04:30:46;;;;;;;7.80;2.90;;;;;;;8.35;62.65;100761.41;105359;1257;72496;-53
2023/10/17 04:33:36;;;;;;;2.40;0.60;;;;;;;8.28;62.65;100763.41;104294;1255;60370;-50
2023/10/17 04:36:06;;;;;;;8.10;2.00;;;;;;;8.20;62.74;100772.16;106534;1259;62589;-54
2023/10/17 04:38:37;;;;;;;4.10;1.50;;;;;;;8.13;62.64;100781.84;105306;1257;60537;-55
2023/10/17 04:44:04;;;;;;;3.70;0.90;;;;;;;7.98;62.86;100793.11;106481;1257;65336;-56
2023/10/17 04:46:49;;;;;;;6.50;1.50;;;;;;;7.99;62.80;100795.13;106394;1260;60539;-49
2023/10/17 04:49:20;;;;;;;5.10;1.00;;;;;;;8.05;62.77;100796.32;105099;1259;64253;-52
2023/10/17 04:51:52;;;;;;;6.60;3.00;;;;;;;8.11;62.76;100799.83;105098;1254;60482;-54
2023/10/17 04:54:31;;;;;;;5.90;1.30;;;;;;;8.15;62.70;100799.36;105262;1254;60370;-53
2023/10/17 04:56:59;;;;;;;6.40;3.00;;;;;;;8.19;62.73;100801.58;106975;1254;63634;-55
2023/10/17 05:05:39;;;;;;;3.00;0.90;;;;;;;8.09;62.49;100818.14;105337;1260;61212;-54
2023/10/17 06:18:17;;;;;;;5.60;2.00;;;;;;;8.02;61.88;100896.98;106218;1254;60435;-57
2023/10/17 06:34:11;;;;;;;4.40;1.60;;;;;;;8.51;60.28;100907.65;109202;1254;64842;-57
2023/10/17 06:36:40;;;;;;;6.10;3.00;;;;;;;8.66;59.79;100912.42;107514;1254;63341;-57
2023/10/17 06:39:19;;;;;;;5.80;2.70;;;;;;;8.84;59.12;100912.36;105528;1260;64461;-59
2023/10/17 06:41:47;;;;;;;6.50;3.60;;;;;;;9.02;58.32;100910.70;105354;1262;60562;-58
2023/10/17 06:44:21;;;;;;;7.70;1.10;;;;;;;8.99;58.06;100910.51;105381;1261;60444;-57
2023/10/17 06:46:55;;;;;;;8.70;4.20;;;;;;;8.91;58.46;100914.73;106134;1257;64941;-60
2023/10/17 06:54:41;;;;;;;4.40;1.10;;;;;;;8.84;58.77;100923.91;105292;1254;60508;-59
2023/10/17 06:57:24;;;;;;;7.20;3.90;;;;;;;8.88;58.22;100918.42;105522;1260;60385;-59
2023/10/17 06:59:53;;;;;;;5.30;1.50;;;;;;;8.93;58.20;100917.02;109238;1253;64876;-61
2023/10/17 07:03:24;;;;;;;3.60;1.10;;;;;;;9.05;57.92;100916.58;105246;1255;61441;-58
2023/10/17 07:05:21;;;;;;;8.00;3.60;;;;;;;9.22;57.08;100927.95;105205;1257;62532;-59
2023/10/17 07:07:59;;;;;;;4.80;1.70;;;;;;;9.26;56.74;100925.25;105982;1258;60556;-58
2023/10/17 07:13:39;;;;;;;4.10;1.30;;;;;;;9.33;56.75;100925.09;106790;1254;65128;-68
2023/10/17 07:16:16;;;;;;;19.50;3.90;;;;;;;9.40;56.34;100931.08;105289;1257;60541;-61
2023/10/17 07:18:44;;;;;;;6.60;3.20;;;;;;;9.43;55.78;100940.56;109219;1254;65616;-63
2023/10/17 07:21:22;;;;;;;5.10;0.90;;;;;;;9.40;54.77;100945.84;109337;1253;58571;-66
2023/10/17 07:23:54;;;;;;;7.90;3.00;;;;;;;9.37;54.76;100947.63;109225;1254;58487;-65
2023/10/17 07:26:38;;;;;;;4.00;1.10;;;;;;;9.39;54.40;100951.15;109334;1251;64912;-61
2023/10/17 07:29:06;;;;;;;3.40;1.00;;;;;;;9.41;53.83;100945.06;109260;1251;60396;-64
2023/10/17 07:31:34;;;;;;;6.20;2.50;;;;;;;9.42;53.98;100950.05;107364;1254;75142;-62
2023/10/17 07:36:38;;;;;;;2.70;0.80;;;;;;;9.44;53.90;100955.35;105383;1254;60466;-63
2023/10/17 07:39:08;;;;;;;5.60;2.30;;;;;;;9.47;53.95;100960.79;105189;1255;63859;-64
2023/10/17 07:41:36;;;;;;;4.80;1.00;;;;;;;9.49;53.82;100960.48;105486;1251;61365;-64
2023/10/17 07:44:19;;;;;;;5.80;2.30;;;;;;;9.55;53.54;100958.17;105533;1251;62792;-61
2023/10/17 07:47:07;;;;;;;3.50;0.50;;;;;;;9.64;52.74;100961.23;105237;1256;60552;-62
2023/10/17 07:49:41;;;;;;;5.80;2.60;;;;;;;9.66;52.06;100961.46;105474;1257;60534;-60
2023/10/17 07:52:15;;;;;;;2.80;0.80;;;;;;;9.63;51.74;100959.71;105479;1252;66980;-61
2023/10/17 07:54:55;;;;;;;4.90;2.10;;;;;;;9.62;51.43;100959.09;105945;1251;61438;-63
2023/10/17 07:57:27;;;;;;;2.30;0.70;;;;;;;9.70;51.76;100963.63;106150;1257;64343;-62
2023/10/17 07:59:58;;;;;;;6.70;2.40;;;;;;;9.81;51.41;100967.12;105977;1254;60532;-65
2023/10/17 08:02:30;;;;;;;3.00;0.80;;;;;;;9.89;51.29;100968.13;105502;1251;61705;-63
2023/10/17 08:05:16;;;;;;;6.00;2.30;;;;;;;9.97;50.66;100962.38;105906;1257;64855;-62
2023/10/17 08:07:49;;;;;;;2.80;1.10;;;;;;;10.04;50.43;100967.48;105285;1257;464944;-63
2023/10/17 08:13:15;;;;;;;2.30;0.70;;;;;;;9.82;50.32;100971.92;102343;1295;600716;-63
2023/10/17 08:15:52;;;;;;;6.50;2.30;;;;;;;10.05;49.79;100973.91;104597;1266;59255;-63
2023/10/17 08:18:27;;;;;;;4.20;1.10;;;;;;;10.10;49.54;100976.70;105150;1269;59277;-64
2023/10/17 08:23:29;;;;;;;3.60;1.20;;;;;;;10.12;48.53;100986.73;104579;1266;61410;-68
2023/10/17 08:26:00;;;;;;;5.10;2.00;;;;;;;10.07;48.08;100988.64;104984;1262;297447;-62
2023/10/17 08:36:53;;;;;;;7.00;1.90;;;;;;;10.03;49.21;100982.98;105465;1266;61409;-63
2023/10/17 08:39:51;;;;;;;3.40;0.90;;;;;;;10.04;48.69;100984.79;106183;1265;63015;-62
2023/10/17 08:44:57;;;;;;;6.40;2.10;;;;;;;9.98;47.83;100983.70;105552;1257;59786;-65
2023/10/17 08:47:32;;;;;;;3.30;1.20;;;;;;;9.97;48.42;100979.70;105663;1263;64169;-67
2023/10/17 08:50:04;;;;;;;7.10;2.70;;;;;;;10.01;48.78;100979.77;105315;1261;62634;-63
2023/10/17 08:52:37;;;;;;;3.30;0.90;;;;;;;10.11;48.94;100981.37;105462;1260;62610;-60
2023/10/17 08:55:06;;;;;;;6.50;2.80;;;;;;;10.22;48.96;100982.69;105336;1261;59733;-63
2023/10/17 08:57:33;;;;;;;4.70;1.20;;;;;;;10.32;49.01;100981.52;105542;1258;59560;-63
2023/10/17 09:02:32;;;;;;;7.20;2.60;;;;;;;10.51;47.66;100984.61;105630;1256;61325;-64
2023/10/17 09:05:25;;;;;;;4.00;1.30;;;;;;;10.51;46.62;100980.74;105196;1256;63713;-67
2023/10/17 09:07:56;;;;;;;7.00;2.80;;;;;;;10.46;46.51;100977.84;105924;1261;59700;-63
2023/10/17 09:10:37;;;;;;;9.70;3.30;;;;;;;10.39;46.61;100972.98;105312;1256;59660;-62
2023/10/17 09:15:57;;;;;;;6.40;2.70;;;;;;;10.41;47.32;100974.65;105116;1256;61809;-61
2023/10/17 09:18:32;;;;;;;2.40;0.60;;;;;;;10.46;46.94;100984.08;105736;1258;63707;-62
2023/10/17 09:21:03;;;;;;;5.00;2.30;;;;;;;10.47;46.25;100984.38;105118;1256;59746;-63
2023/10/17 09:23:30;;;;;;;3.40;1.10;;;;;;;10.43;46.42;100986.56;105241;1256;62196;-64
2023/10/17 09:26:01;;;;;;;6.40;2.30;;;;;;;10.40;46.41;100986.79;105017;1261;64065;-61
2023/10/17 09:28:28;;;;;;;2.90;0.90;;;;;;;10.35;46.46;100984.48;105583;1258;63751;-60
2023/10/17 09:31:06;;;;;;;7.40;2.80;;;;;;;10.32;46.53;100979.25;105058;1256;64766;-60
2023/10/17 09:33:43;;;;;;;3.20;1.20;;;;;;;10.33;46.80;100974.46;105004;1259;59789;-64
2023/10/17 09:36:18;;;;;;;6.40;1.70;;;;;;;10.37;46.26;100975.27;105016;1256;59833;-61
2023/10/17 09:38:47;;;;;;;8.10;4.40;;;;;;;10.40;46.44;100979.04;105198;1256;64061;-60
2023/10/17 09:41:18;;;;;;;9.00;3.70;;;;;;;10.44;46.93;100978.44;105848;1259;61317;-60
2023/10/17 09:43:49;;;;;;;3.60;1.10;;;;;;;10.48;47.08;100976.55;108922;1255;62645;-60
2023/10/17 09:46:25;;;;;;;9.10;3.40;;;;;;;10.57;46.98;100967.02;108897;1256;58022;-64
2023/10/17 09:48:54;;;;;;;8.00;2.90;;;;;;;10.68;46.60;100965.70;108991;1256;57527;-61
2023/10/17 09:51:31;;;;;;;2.80;0.70;;;;;;;10.77;45.73;100960.66;108865;1256;66112;-62
2023/10/17 09:54:08;;;;;;;6.20;2.80;;;;;;;10.84;45.19;100960.52;106239;1260;62395;-61
2023/10/17 09:56:38;;;;;;;5.60;2.70;;;;;;;10.91;44.84;100967.04;104981;1259;64237;-61
2023/10/17 09:59:27;;;;;;;8.30;3.40;;;;;;;10.94;44.66;100960.66;106396;1258;59599;-61
2023/10/17 10:01:58;;;;;;;6.00;2.40;;;;;;;10.94;45.04;100954.73;105780;1259;59554;-62
2023/10/17 10:04:28;;;;;;;7.90;1.70;;;;;;;10.95;44.70;100957.30;105026;1256;64302;-59
2023/10/17 10:07:21;;;;;;;4.80;2.60;;;;;;;10.95;44.11;100956.60;105601;1258;61421;-60
2023/10/17 10:09:49;;;;;;;6.40;2.80;;;;;;;10.97;44.38;100952.75;104998;1257;62505;-61
2023/10/17 10:12:17;;;;;;;7.60;3.00;;;;;;;11.03;44.70;100950.02;105194;1259;59692;-65
2023/10/17 10:14:49;;;;;;;5.90;2.60;;;;;;;11.11;44.24;100944.56;105825;1257;59704;-61
2023/10/17 10:17:17;;;;;;;6.10;2.40;;;;;;;11.18;44.49;100948.94;105053;1256;74055;-61
2023/10/17 10:19:49;;;;;;;3.60;0.80;;;;;;;11.25;43.29;100949.84;104831;1256;63928;-61
2023/10/17 10:22:20;;;;;;;5.70;2.30;;;;;;;11.27;42.66;100948.06;105262;1256;63962;-59
2023/10/17 10:24:48;;;;;;;6.80;2.50;;;;;;;11.33;42.56;100945.41;106643;1256;59622;-62
2023/10/17 10:27:19;;;;;;;7.70;2.60;;;;;;;11.41;42.52;100940.39;105706;1259;60037;-60
2023/10/17 10:29:52;;;;;;;5.80;2.50;;;;;;;11.51;42.42;100941.25;106088;1260;64269;-59
2023/10/17 10:32:30;;;;;;;5.90;2.60;;;;;;;11.60;42.21;100939.66;104916;1262;63488;-63
2023/10/17 10:34:58;;;;;;;5.30;0.80;;;;;;;11.69;42.06;100935.64;104953;1260;64119;-61
2023/10/17 10:37:26;;;;;;;5.50;2.30;;;;;;;11.80;42.05;100937.11;105092;1259;59759;-61
2023/10/17 10:40:11;;;;;;;6.90;2.60;;;;;;;11.88;42.48;100933.70;105188;1261;59586;-59
2023/10/17 10:42:47;;;;;;;4.60;1.70;;;;;;;11.99;41.16;100941.83;105144;1256;63029;-61
2023/10/17 10:45:24;;;;;;;5.40;2.30;;;;;;;12.06;40.22;100933.02;105825;1258;60105;-62
2023/10/17 10:47:58;;;;;;;7.20;2.30;;;;;;;12.15;40.23;100938.51;105704;1259;64282;-61
2023/10/17 10:50:27;;;;;;;6.60;2.20;;;;;;;12.22;39.61;100935.80;105083;1258;60202;-64
2023/10/17 10:52:58;;;;;;;5.80;2.40;;;;;;;12.22;39.44;100931.80;105639;1258;59666;-60
2023/10/17 10:55:27;;;;;;;5.50;2.60;;;;;;;12.21;39.91;100929.04;107247;1256;64075;-62
2023/10/17 10:57:54;;;;;;;5.70;2.60;;;;;;;12.23;40.20;100926.12;105674;1260;60297;-65
2023/10/17 11:00:22;;;;;;;7.40;2.40;;;;;;;12.26;39.78;100931.32;105052;1260;62411;-61
2023/10/17 11:02:50;;;;;;;5.50;2.60;;;;;;;12.27;39.41;100935.29;105012;1257;59776;-61
2023/10/17 11:05:18;;;;;;;6.10;2.50;;;;;;;12.25;39.63;100933.46;105669;1259;59667;-59
2023/10/17 11:07:46;;;;;;;5.30;2.30;;;;;;;12.26;39.46;100930.95;105064;1257;74305;-59
2023/10/17 11:10:14;;;;;;;6.00;2.50;;;;;;;12.27;39.79;100930.33;105171;1256;61895;-60
2023/10/17 11:12:52;;;;;;;5.30;2.40;;;;;;;12.31;39.91;100927.23;104938;1260;64226;-61
2023/10/17 11:15:26;;;;;;;5.80;2.20;;;;;;;12.35;39.76;100925.29;105497;1258;59877;-64
2023/10/17 11:18:02;;;;;;;5.30;1.80;;;;;;;12.43;39.19;100919.94;105034;1264;59568;-63
2023/10/17 11:20:29;;;;;;;4.30;1.60;;;;;;;12.54;37.81;100917.33;105625;1259;64608;-62
2023/10/17 11:22:57;;;;;;;4.40;1.70;;;;;;;12.62;36.09;100915.27;104958;1261;60824;-64
2023/10/17 11:25:27;;;;;;;5.30;2.00;;;;;;;12.68;35.94;100917.30;105608;1256;63777;-61
2023/10/17 11:28:07;;;;;;;6.40;1.90;;;;;;;12.71;35.36;100916.17;105428;1258;60107;-63
2023/10/17 11:30:40;;;;;;;4.50;1.90;;;;;;;12.73;34.88;100914.77;105116;1256;59727;-59
2023/10/17 11:33:15;;;;;;;4.30;1.60;;;;;;;12.78;35.34;100917.35;105343;1261;75321;-61
2023/10/17 11:35:52;;;;;;;5.00;1.60;;;;;;;12.79;35.38;100917.92;105091;1256;63255;-61
2023/10/17 11:38:34;;;;;;;5.20;1.80;;;;;;;12.74;34.85;100924.68;105709;1257;63808;-58
2023/10/17 11:41:15;;;;;;;4.20;1.50;;;;;;;12.65;34.88;100927.39;105221;1261;59778;-58
2023/10/17 11:43:53;;;;;;;5.00;1.80;;;;;;;12.58;35.32;100922.50;105315;1256;59729;-59
2023/10/17 11:46:29;;;;;;;4.30;1.60;;;;;;;12.52;35.17;100923.16;105816;1256;64187;-57
2023/10/17 11:49:40;;;;;;;4.70;1.60;;;;;;;12.50;35.19;100924.48;105708;1257;62054;-63
2023/10/17 11:52:09;;;;;;;4.60;1.90;;;;;;;12.57;35.48;100925.55;105095;1262;62495;-58
2023/10/17 11:55:00;;;;;;;4.50;1.60;;;;;;;12.63;35.01;100925.57;105959;1256;59827;-59
2023/10/17 11:57:29;;;;;;;4.80;1.80;;;;;;;12.66;34.72;100930.96;105698;1261;59767;-60
2023/10/17 12:00:06;;;;;;;4.70;1.60;;;;;;;12.69;34.73;100927.59;105140;1259;64519;-58
2023/10/17 12:02:41;;;;;;;5.00;1.50;;;;;;;12.73;34.77;100923.75;106194;1258;61348;-56
2023/10/17 12:05:19;;;;;;;5.60;2.10;;;;;;;12.66;34.65;100922.73;105965;1256;62609;-56
2023/10/17 12:07:57;;;;;;;6.30;2.20;;;;;;;12.64;34.84;100929.02;105255;1260;59767;-56
2023/10/17 12:10:25;;;;;;;4.30;1.70;;;;;;;12.75;34.69;100938.50;105644;1260;59632;-58
2023/10/17 12:12:59;;;;;;;7.90;2.20;;;;;;;12.68;34.66;100939.59;106393;1260;64125;-57
2023/10/17 12:15:31;;;;;;;4.70;1.60;;;;;;;12.57;34.84;100935.17;106014;1257;62157;-59
2023/10/17 12:17:59;;;;;;;4.20;1.30;;;;;;;12.58;35.28;100932.11;105071;1260;64272;-57
2023/10/17 12:20:27;;;;;;;4.60;1.40;;;;;;;12.60;35.52;100934.60;106067;1260;60393;-57
2023/10/17 12:22:56;;;;;;;5.90;1.60;;;;;;;12.58;35.26;100937.42;105602;1262;59559;-60
2023/10/17 12:25:24;;;;;;;3.90;1.40;;;;;;;12.60;34.36;100937.25;105624;1263;64357;-55
2023/10/17 12:27:56;;;;;;;3.80;1.30;;;;;;;12.63;33.56;100931.05;105420;1258;72739;-62
2023/10/17 12:30:35;;;;;;;5.00;1.20;;;;;;;12.76;33.50;100936.48;106491;1259;72984;-61
2023/10/17 12:33:05;;;;;;;3.90;1.10;;;;;;;13.05;33.40;100933.29;108885;1257;58516;-63
2023/10/17 12:35:33;;;;;;;4.20;1.10;;;;;;;13.26;32.86;100933.39;105555;1262;60463;-62
2023/10/17 12:38:25;;;;;;;4.70;1.30;;;;;;;13.41;32.23;100925.81;105295;1262;65083;-62
2023/10/17 12:40:53;;;;;;;3.70;1.10;;;;;;;13.71;32.62;100926.27;108175;1256;61531;-62
2023/10/17 12:43:21;;;;;;;3.90;1.30;;;;;;;14.50;32.29;100925.08;105545;1259;71831;-62
2023/10/17 12:45:55;;;;;;;5.20;1.50;;;;;;;15.39;30.70;100920.92;104792;1264;60618;-62
2023/10/17 12:48:24;;;;;;;3.10;1.10;;;;;;;16.52;29.79;100920.97;108837;1259;60234;-63
2023/10/17 12:50:56;;;;;;;4.40;1.30;;;;;;;17.80;28.20;100915.55;106462;1259;75854;-59
2023/10/17 12:53:25;;;;;;;5.00;1.40;;;;;;;19.01;26.98;100916.41;105428;1262;68941;-62
2023/10/17 12:55:55;;;;;;;4.10;1.20;;;;;;;20.15;25.38;100914.65;106213;1257;71813;-66
2023/10/17 12:58:23;;;;;;;4.30;1.80;;;;;;;21.09;23.69;100915.27;106492;1257;60833;-61
2023/10/17 13:00:52;;;;;;;5.10;1.30;;;;;;;20.87;23.59;100916.68;105721;1259;60522;-65
2023/10/17 13:03:22;;;;;;;5.50;1.30;;;;;;;20.03;24.60;100919.07;105815;1259;64922;-65
2023/10/17 13:05:50;;;;;;;3.70;1.40;;;;;;;19.15;25.76;100921.43;105070;1262;60480;-63
2023/10/17 13:08:21;;;;;;;5.30;1.70;;;;;;;18.56;26.60;100920.13;105794;1259;62515;-67
2023/10/17 13:10:54;;;;;;;4.70;1.30;;;;;;;18.09;26.36;100918.64;107441;1253;60556;-58
2023/10/17 13:13:22;;;;;;;3.70;1.10;;;;;;;17.37;26.67;100925.39;107332;1253;60372;-63
2023/10/17 13:15:57;;;;;;;4.80;1.20;;;;;;;16.60;28.08;100929.16;106367;1253;65949;-65
2023/10/17 13:18:30;;;;;;;3.80;0.90;;;;;;;15.96;29.11;100928.58;106837;1256;63210;-64
2023/10/17 13:21:02;;;;;;;2.40;0.80;;;;;;;15.50;29.46;100926.41;105369;1256;64074;-66
2023/10/17 13:23:39;;;;;;;2.30;0.80;;;;;;;15.06;30.20;100928.67;105520;1256;60565;-65
2023/10/17 13:26:11;;;;;;;3.30;0.90;;;;;;;14.93;30.91;100931.61;105752;1256;60593;-66
2023/10/17 13:28:43;;;;;;;2.90;1.00;;;;;;;15.71;30.60;100925.77;106917;1258;73895;-56
2023/10/17 13:31:12;;;;;;;2.10;0.60;;;;;;;17.07;28.86;100921.98;105443;1255;71409;-56
2023/10/17 13:33:49;;;;;;;3.90;1.10;;;;;;;18.45;27.34;100916.83;105431;1256;71500;-55
2023/10/17 13:36:17;;;;;;;6.70;1.60;;;;;;;19.39;25.74;100913.47;109090;1253;58980;-61
2023/10/17 13:38:45;;;;;;;4.30;1.20;;;;;;;19.54;25.32;100915.59;109281;1253;61032;-61
2023/10/17 13:41:15;;;;;;;4.70;1.80;;;;;;;19.05;25.20;100915.84;109082;1253;65616;-65
2023/10/17 13:43:43;;;;;;;6.10;1.90;;;;;;;18.13;26.35;100920.02;109069;1253;68993;-65
2023/10/17 13:46:12;;;;;;;3.50;1.30;;;;;;;17.19;27.58;100921.86;105311;1256;65605;-65
2023/10/17 13:48:50;;;;;;;4.40;1.50;;;;;;;16.60;28.41;100920.12;105306;1259;60501;-65
2023/10/17 13:51:19;;;;;;;4.10;1.40;;;;;;;16.69;29.28;100921.74;106452;1255;61303;-67
2023/10/17 13:53:48;;;;;;;5.30;1.40;;;;;;;17.33;28.26;100918.55;105265;1253;72595;-66
2023/10/17 13:56:19;;;;;;;4.30;1.30;;;;;;;18.10;27.75;100909.68;105532;1253;72422;-62
2023/10/17 13:58:49;;;;;;;3.30;0.90;;;;;;;19.04;26.70;100907.04;105319;1259;72310;-64
2023/10/17 14:01:32;;;;;;;4.00;1.10;;;;;;;19.81;25.92;100903.67;106867;1253;60115;-71
2023/10/17 14:04:01;;;;;;;3.00;0.90;;;;;;;20.47;24.36;100907.52;105701;1258;62552;-62
2023/10/17 14:06:34;;;;;;;4.50;1.50;;;;;;;20.76;24.29;100899.81;105811;1258;73873;-63
2023/10/17 14:09:03;;;;;;;3.20;1.10;;;;;;;20.97;23.80;100900.98;105594;1253;72827;-61
2023/10/17 14:11:31;;;;;;;2.70;1.00;;;;;;;21.07;24.00;100896.52;105522;1255;71332;-63
2023/10/17 14:13:59;;;;;;;3.00;0.90;;;;;;;20.82;24.12;100898.07;105299;1253;60497;-64
2023/10/17 14:16:31;;;;;;;5.60;1.40;;;;;;;20.23;24.58;100896.70;105165;1254;61338;-70
2023/10/17 14:19:13;;;;;;;4.30;1.30;;;;;;;19.84;24.94;100894.98;105892;1253;74934;-66